Time;durP1;ratioP1;P1;durP2;ratioP2;P2;SDS_P1;SDS_P2;PMS_P1;PMS_P2;Temp;Humidity;BMP_temperature;BMP_pressure;BME280_temperature;BME280_humidity;BME280_pressure;Samples;Min_cycle;Max_cycle;Signal;HPM_P1;HPM_P2
2023/10/02 07:09:10;;;;;;;;;9.33;6.00;;;;;21.97;57.78;101709.34;5114595;27;46598;-81
2023/10/02 07:11:40;;;;;;;;;9.00;7.67;;;;;22.15;57.11;101706.84;5106836;27;45653;-82
2023/10/02 07:14:06;;;;;;;;;13.00;10.00;;;;;22.34;57.02;101706.06;5098538;27;45539;-85
2023/10/02 07:16:35;;;;;;;;;7.67;7.67;;;;;22.56;56.72;101701.44;5096650;27;46098;-86
2023/10/02 07:19:00;;;;;;;;;12.33;10.67;;;;;22.78;55.95;101696.81;5108176;27;45744;-81
2023/10/02 07:21:30;;;;;;;;;8.00;8.00;;;;;23.01;55.91;101699.25;5106412;27;45874;-81
2023/10/02 07:23:56;;;;;;;;;8.67;8.67;;;;;23.23;55.45;101703.53;5101873;27;45641;-81
2023/10/02 07:26:46;;;;;;;;;12.33;9.67;;;;;23.41;55.50;101694.69;5107421;27;45533;-83
2023/10/02 07:29:07;;;;;;;;;10.33;8.33;;;;;23.70;54.80;101704.63;5106400;27;46043;-80
2023/10/02 07:31:32;;;;;;;;;12.33;9.33;;;;;23.90;54.54;101707.25;5104918;27;45805;-79
2023/10/02 07:33:58;;;;;;;;;12.33;10.67;;;;;24.07;54.21;101698.34;5107754;27;45603;-80
2023/10/02 07:36:26;;;;;;;;;8.67;7.67;;;;;24.24;54.12;101704.03;5104419;27;49427;-79
2023/10/02 07:38:53;;;;;;;;;12.00;9.00;;;;;24.40;53.27;101705.25;5107159;27;46206;-87
2023/10/02 07:41:25;;;;;;;;;11.67;8.00;;;;;24.54;53.30;101709.28;5107317;27;45536;-93
2023/10/02 07:43:55;;;;;;;;;12.00;10.33;;;;;24.70;52.86;101711.34;5108534;27;45532;-82
2023/10/02 07:46:21;;;;;;;;;15.00;9.33;;;;;24.83;52.13;101708.28;5103411;27;45614;-79
2023/10/02 07:49:04;;;;;;;;;11.67;9.33;;;;;24.94;51.75;101709.91;5095480;27;46330;-79
2023/10/02 07:51:37;;;;;;;;;13.33;11.00;;;;;25.05;51.59;101706.97;5101906;27;45536;-78
2023/10/02 07:54:04;;;;;;;;;10.33;10.33;;;;;25.16;51.50;101710.44;5110701;27;45973;-78
2023/10/02 07:56:29;;;;;;;;;9.00;9.00;;;;;25.25;51.39;101706.78;5105821;27;45405;-79
2023/10/02 07:58:55;;;;;;;;;10.33;10.33;;;;;25.34;50.73;101702.31;5111809;27;53153;-79
2023/10/02 08:01:27;;;;;;;;;11.67;10.00;;;;;25.42;50.79;101709.66;5097980;27;45522;-79
2023/10/02 08:03:52;;;;;;;;;12.00;9.00;;;;;25.48;50.38;101703.59;5110847;27;45598;-79
2023/10/02 08:06:21;;;;;;;;;10.67;10.33;;;;;25.56;50.07;101702.81;5110909;27;45659;-80
2023/10/02 08:11:51;;;;;;;;;10.00;10.00;;;;;25.70;49.54;101709.56;5107662;27;45656;-80
2023/10/02 08:17:18;;;;;;;;;11.00;9.33;;;;;25.79;49.30;101703.16;5100767;27;45580;-85
2023/10/02 08:19:54;;;;;;;;;9.33;7.33;;;;;25.81;49.08;101705.69;5093742;27;46206;-78
2023/10/02 08:22:20;;;;;;;;;12.00;9.33;;;;;25.84;49.01;101706.25;5086900;27;45494;-79
2023/10/02 08:24:45;;;;;;;;;11.00;10.00;;;;;25.89;49.71;101708.47;5092884;27;45412;-78
2023/10/02 08:27:14;;;;;;;;;13.67;12.67;;;;;25.89;48.97;101701.16;5084021;27;45571;-79
2023/10/02 08:29:41;;;;;;;;;11.67;9.00;;;;;25.90;49.22;101694.72;5092078;27;45990;-78
2023/10/02 08:32:07;;;;;;;;;11.33;10.00;;;;;25.97;48.80;101700.34;5087143;27;45648;-76
2023/10/02 08:34:32;;;;;;;;;9.00;9.00;;;;;26.00;48.57;101699.19;5092993;27;45476;-78
2023/10/02 08:37:09;;;;;;;;;13.33;11.33;;;;;26.03;49.12;101693.41;5085616;27;46439;-77
2023/10/02 08:39:36;;;;;;;;;11.00;11.00;;;;;26.07;48.82;101697.50;5091315;27;45795;-78
2023/10/02 08:42:11;;;;;;;;;11.67;11.67;;;;;26.10;48.95;101691.75;5091311;27;45590;-79
2023/10/02 08:44:41;;;;;;;;;10.33;9.00;;;;;26.12;48.54;101699.75;5093000;27;45514;-80
2023/10/02 08:47:07;;;;;;;;;10.33;10.33;;;;;26.13;48.85;101705.03;5092447;27;45762;-80
2023/10/02 08:49:34;;;;;;;;;9.00;8.67;;;;;26.18;48.61;101704.53;5091915;27;45400;-81
2023/10/02 08:52:03;;;;;;;;;14.67;12.33;;;;;26.18;48.61;101693.66;5093090;27;45506;-78
2023/10/02 08:54:30;;;;;;;;;13.33;12.67;;;;;26.23;48.44;101698.59;5088969;27;45784;-79
2023/10/02 08:57:08;;;;;;;;;16.67;11.00;;;;;26.25;48.03;101697.47;5091276;27;46618;-78
2023/10/02 08:59:41;;;;;;;;;7.33;7.33;;;;;26.27;48.34;101703.56;5092577;27;46189;-77
2023/10/02 09:02:13;;;;;;;;;14.00;10.00;;;;;26.29;48.30;101698.81;5106344;27;45833;-78
2023/10/02 09:04:51;;;;;;;;;13.00;9.33;;;;;26.31;48.25;101706.81;5092749;27;45722;-76
2023/10/02 09:08:01;;;;;;;;;12.67;11.67;;;;;26.33;47.72;101701.22;5087635;27;45614;-76
2023/10/02 09:10:28;;;;;;;;;16.33;13.33;;;;;26.35;48.18;101704.63;5091295;27;46647;-78
2023/10/02 09:13:14;;;;;;;;;12.67;9.00;;;;;26.37;47.57;101694.44;5090375;27;45575;-78
2023/10/02 09:15:44;;;;;;;;;14.00;12.00;;;;;26.39;47.61;101695.97;5093088;27;45606;-78
2023/10/02 09:18:22;;;;;;;;;13.00;13.00;;;;;26.42;47.45;101703.81;5107737;27;45671;-78
2023/10/02 09:20:53;;;;;;;;;13.67;13.00;;;;;26.44;48.02;101696.31;5090232;27;45508;-78
2023/10/02 09:23:27;;;;;;;;;11.33;10.33;;;;;26.46;47.98;101698.03;5086437;27;45843;-78
2023/10/02 09:26:16;;;;;;;;;9.00;8.33;;;;;26.49;47.62;101694.97;5092600;27;45888;-79
2023/10/02 09:28:44;;;;;;;;;14.00;11.00;;;;;26.47;47.92;101686.97;5091479;27;45494;-78
2023/10/02 09:31:14;;;;;;;;;12.67;11.00;;;;;26.50;47.61;101680.34;5084991;27;46093;-74
2023/10/02 09:33:41;;;;;;;;;9.00;8.67;;;;;26.49;47.68;101679.50;5089625;27;45522;-74
2023/10/02 09:36:08;;;;;;;;;14.00;11.33;;;;;26.51;47.65;101676.59;5092366;27;45464;-74
2023/10/02 09:38:33;;;;;;;;;17.00;13.67;;;;;26.52;48.02;101678.31;5092455;27;45528;-74
2023/10/02 09:43:33;;;;;;;;;15.00;11.67;;;;;26.54;47.10;101676.28;5065595;27;45558;-73
2023/10/02 09:46:21;;;;;;;;;13.33;11.67;;;;;26.56;47.93;101668.78;5072340;27;45620;-73
2023/10/02 09:49:03;;;;;;;;;13.00;11.67;;;;;26.57;47.12;101668.63;5087587;27;45458;-74
2023/10/02 09:51:44;;;;;;;;;14.67;10.00;;;;;26.59;47.78;101663.00;5083525;27;46506;-74
2023/10/02 09:54:31;;;;;;;;;17.67;14.67;;;;;26.61;47.18;101663.72;5091217;27;45460;-74
2023/10/02 09:57:11;;;;;;;;;13.33;11.33;;;;;26.64;46.97;101662.53;5092011;27;45610;-74
2023/10/02 09:59:47;;;;;;;;;12.67;11.67;;;;;26.65;47.10;101664.22;5090373;27;45840;-74
2023/10/02 10:02:49;;;;;;;;;17.00;12.67;;;;;26.71;46.96;101660.81;5089668;27;46087;-72
2023/10/02 10:07:46;;;;;;;;;12.33;11.33;;;;;26.74;46.72;101657.78;5081227;27;45553;-73
2023/10/02 10:13:46;;;;;;;;;14.00;12.00;;;;;26.77;46.36;101646.53;5090216;27;45779;-73
2023/10/02 10:16:18;;;;;;;;;12.67;10.33;;;;;26.78;46.44;101641.94;5090706;27;45603;-73
2023/10/02 10:21:55;;;;;;;;;14.00;10.67;;;;;26.75;47.16;101642.25;5088298;27;45633;-74
2023/10/02 10:24:55;;;;;;;;;12.33;12.00;;;;;26.78;47.06;101640.06;5084541;27;45955;-75
2023/10/02 10:27:41;;;;;;;;;14.33;13.00;;;;;26.78;47.02;101634.63;5084141;27;45599;-75
2023/10/02 10:30:19;;;;;;;;;12.67;11.33;;;;;26.78;46.89;101636.50;5080017;27;45645;-75
2023/10/02 10:32:44;;;;;;;;;14.00;11.67;;;;;26.79;46.62;101638.19;5075266;27;45509;-74
2023/10/02 10:35:30;;;;;;;;;15.00;12.67;;;;;26.79;47.02;101632.75;5076114;27;45576;-75
2023/10/02 10:37:56;;;;;;;;;14.33;13.00;;;;;26.78;46.81;101628.31;5085697;27;45555;-74
2023/10/02 10:41:00;;;;;;;;;16.00;13.33;;;;;26.79;46.59;101625.44;5090194;27;45916;-75
2023/10/02 10:43:26;;;;;;;;;12.00;11.67;;;;;26.77;47.16;101618.47;5089703;27;45524;-74
2023/10/02 10:45:55;;;;;;;;;14.67;12.67;;;;;26.79;46.62;101616.41;5084599;27;46372;-73
2023/10/02 10:48:22;;;;;;;;;15.33;14.67;;;;;26.80;46.84;101613.50;5084198;27;45447;-73
2023/10/02 10:50:59;;;;;;;;;12.67;12.67;;;;;26.82;46.46;101616.91;5071042;27;45628;-73
2023/10/02 10:53:28;;;;;;;;;17.67;16.00;;;;;26.82;46.51;101610.63;5084099;27;45552;-73
2023/10/02 10:55:59;;;;;;;;;20.33;16.67;;;;;26.84;46.54;101603.13;5082228;27;45525;-74
2023/10/02 10:58:31;;;;;;;;;12.67;10.67;;;;;26.87;46.75;101601.94;5086006;27;45947;-75
2023/10/02 11:00:58;;;;;;;;;15.00;12.33;;;;;26.90;46.34;101605.19;5090130;27;45607;-75
2023/10/02 11:03:26;;;;;;;;;17.33;16.33;;;;;26.89;46.01;101597.19;5085510;27;45590;-77
2023/10/02 11:05:58;;;;;;;;;19.00;14.67;;;;;26.92;46.58;101583.19;5093036;27;45740;-75
2023/10/02 11:08:23;;;;;;;;;16.67;15.00;;;;;26.99;46.22;101588.84;5086814;27;45594;-76
2023/10/02 11:11:00;;;;;;;;;16.33;15.67;;;;;27.00;46.30;101583.22;5089649;27;45368;-77
2023/10/02 11:13:50;;;;;;;;;18.67;16.33;;;;;27.04;46.31;101586.47;5088791;27;45380;-76
2023/10/02 11:16:30;;;;;;;;;16.00;14.33;;;;;27.06;46.18;101582.53;5078096;27;45869;-75
2023/10/02 11:19:21;;;;;;;;;17.67;16.33;;;;;27.07;46.14;101578.81;5073394;27;46089;-75
2023/10/02 11:22:21;;;;;;;;;19.33;16.33;;;;;27.10;45.77;101574.88;5079177;27;45529;-75
2023/10/02 11:24:55;;;;;;;;;21.67;19.00;;;;;27.09;46.02;101571.31;5080875;27;45445;-75
2023/10/02 11:27:24;;;;;;;;;19.67;15.00;;;;;27.07;45.47;101559.75;5079478;27;46375;-75
2023/10/02 11:30:03;;;;;;;;;17.67;15.67;;;;;27.10;45.81;101566.72;5077264;27;46617;-76
2023/10/02 11:32:53;;;;;;;;;20.67;17.00;;;;;27.10;45.45;101559.38;5082469;27;46000;-74
2023/10/02 11:35:22;;;;;;;;;19.33;15.33;;;;;27.10;46.15;101553.09;5086067;27;45587;-73
2023/10/02 11:37:48;;;;;;;;;19.67;16.00;;;;;27.08;46.00;101542.38;5105061;27;45997;-74
2023/10/02 11:40:15;;;;;;;;;18.00;14.33;;;;;27.08;45.64;101545.09;5080819;27;45501;-74
2023/10/02 11:42:40;;;;;;;;;18.67;15.33;;;;;27.08;45.51;101544.22;5086807;27;46819;-73
2023/10/02 11:45:10;;;;;;;;;16.33;16.33;;;;;27.08;45.93;101544.22;5089876;27;45707;-74
2023/10/02 11:47:37;;;;;;;;;14.67;13.33;;;;;27.07;45.55;101543.41;5088392;27;46487;-73
2023/10/02 11:50:03;;;;;;;;;21.67;19.33;;;;;27.07;46.01;101537.09;5090186;27;45676;-74
2023/10/02 11:52:29;;;;;;;;;18.33;16.67;;;;;27.08;45.67;101544.22;5080479;27;45529;-73
2023/10/02 11:54:55;;;;;;;;;19.00;16.67;;;;;27.08;45.37;101544.22;5089968;27;45651;-74
2023/10/02 11:57:20;;;;;;;;;19.00;17.33;;;;;27.10;45.78;101534.84;5087434;27;45610;-74
2023/10/02 11:59:47;;;;;;;;;18.00;17.00;;;;;27.09;45.57;101522.25;5084766;27;45498;-76
2023/10/02 12:02:16;;;;;;;;;16.67;15.33;;;;;27.14;46.07;101521.72;5081255;27;45990;-75
2023/10/02 12:04:41;;;;;;;;;21.33;17.67;;;;;27.16;45.37;101524.28;5088028;27;45860;-75
2023/10/02 12:07:07;;;;;;;;;19.67;14.00;;;;;27.17;45.45;101509.63;5090117;27;45620;-74
2023/10/02 12:09:33;;;;;;;;;19.67;16.00;;;;;27.20;45.99;101514.75;5090677;27;45523;-74
2023/10/02 12:12:00;;;;;;;;;20.00;18.67;;;;;27.20;45.32;101514.75;5083188;27;45541;-74
2023/10/02 12:14:26;;;;;;;;;14.33;13.00;;;;;27.22;45.63;101504.53;5090826;27;45530;-73
2023/10/02 12:16:57;;;;;;;;;19.33;16.67;;;;;27.23;45.55;101503.50;5087521;27;45787;-74
2023/10/02 12:19:28;;;;;;;;;22.67;18.00;;;;;27.23;45.42;101507.06;5092160;27;45486;-74
2023/10/02 12:21:54;;;;;;;;;21.33;18.00;;;;;27.26;45.66;101502.28;5089789;27;45564;-75
2023/10/02 12:24:19;;;;;;;;;17.33;15.33;;;;;27.26;45.11;101497.69;5090441;27;45637;-74
2023/10/02 12:26:46;;;;;;;;;20.67;19.00;;;;;27.25;45.13;101492.44;5085669;27;45974;-74
2023/10/02 12:29:11;;;;;;;;;20.67;17.33;;;;;27.26;44.93;101489.50;5092852;27;45596;-74
2023/10/02 12:31:37;;;;;;;;;22.00;19.00;;;;;27.27;45.39;101488.50;5085687;27;45627;-75
2023/10/02 12:34:03;;;;;;;;;21.67;18.33;;;;;27.29;44.94;101478.25;5089418;27;47581;-75
2023/10/02 12:36:31;;;;;;;;;14.33;13.67;;;;;27.31;45.48;101483.53;5091866;27;46092;-75
2023/10/02 12:38:57;;;;;;;;;22.00;18.00;;;;;27.32;45.49;101477.06;5091527;27;45512;-77
2023/10/02 12:41:25;;;;;;;;;19.00;18.67;;;;;27.32;45.87;101475.19;5080823;27;45546;-75
2023/10/02 12:43:58;;;;;;;;;23.67;21.00;;;;;27.32;45.48;101474.31;5089968;27;45494;-76
2023/10/02 12:46:28;;;;;;;;;22.33;19.33;;;;;27.31;45.65;101470.78;5088672;27;46008;-75
2023/10/02 12:48:57;;;;;;;;;17.67;16.33;;;;;27.32;45.61;101466.16;5085720;27;45602;-76
2023/10/02 12:51:25;;;;;;;;;22.00;17.67;;;;;27.32;45.57;101461.56;5085186;27;45637;-76
2023/10/02 12:53:50;;;;;;;;;20.67;19.33;;;;;27.32;45.25;101455.25;5089837;27;45489;-75
2023/10/02 12:56:20;;;;;;;;;22.67;18.33;;;;;27.31;45.47;101437.22;5087072;27;45611;-75
2023/10/02 12:58:50;;;;;;;;;23.67;20.67;;;;;27.33;45.08;101435.13;5091899;27;45651;-76
2023/10/02 13:01:17;;;;;;;;;18.00;16.67;;;;;27.31;45.47;101439.94;5079924;27;45932;-76
2023/10/02 13:03:43;;;;;;;;;24.00;17.67;;;;;27.30;45.25;101433.63;5091667;27;45620;-75
2023/10/02 13:06:12;;;;;;;;;23.33;16.67;;;;;27.29;45.10;101425.63;5086383;27;45675;-75
2023/10/02 13:08:38;;;;;;;;;18.33;16.67;;;;;27.31;45.63;101431.75;5091381;27;45592;-74
2023/10/02 13:11:04;;;;;;;;;24.33;19.33;;;;;27.30;45.21;101417.28;5086426;27;45541;-74
2023/10/02 13:13:30;;;;;;;;;19.67;17.67;;;;;27.31;45.65;101408.09;5086105;27;45602;-78
2023/10/02 13:15:56;;;;;;;;;18.00;15.33;;;;;27.32;45.56;101414.38;5086511;27;45991;-77
2023/10/02 13:18:21;;;;;;;;;23.33;20.00;;;;;27.32;45.00;101396.16;5088719;27;57334;-76
2023/10/02 13:20:47;;;;;;;;;17.67;14.33;;;;;27.29;45.25;101396.50;5084132;27;50670;-74
2023/10/02 13:23:12;;;;;;;;;21.00;20.33;;;;;27.32;45.44;101392.56;5091933;27;45396;-75
2023/10/02 13:25:42;;;;;;;;;21.67;20.00;;;;;27.33;45.47;101386.94;5084066;27;46324;-75
2023/10/02 13:28:11;;;;;;;;;18.33;13.67;;;;;27.33;45.69;101388.81;5080875;27;45623;-74
2023/10/02 13:30:38;;;;;;;;;20.67;17.33;;;;;27.34;45.33;101391.38;5085211;27;45726;-75
2023/10/02 13:33:03;;;;;;;;;18.67;17.67;;;;;27.35;44.92;101389.50;5074985;27;45511;-73
2023/10/02 13:35:32;;;;;;;;;25.33;18.00;;;;;27.36;45.15;101392.06;5091872;27;46100;-74
2023/10/02 13:37:58;;;;;;;;;20.67;17.00;;;;;27.36;45.15;101386.59;5077365;27;45435;-74
2023/10/02 13:40:28;;;;;;;;;18.67;18.33;;;;;27.34;45.34;101380.47;5088091;27;45672;-73
2023/10/02 13:42:56;;;;;;;;;24.33;17.67;;;;;27.38;44.91;101385.56;5084617;27;45656;-74
2023/10/02 13:45:24;;;;;;;;;21.67;17.33;;;;;27.40;45.45;101386.22;5090388;27;46012;-74
2023/10/02 13:47:49;;;;;;;;;25.00;19.67;;;;;27.38;45.31;101372.75;5082501;27;45961;-74
2023/10/02 13:50:15;;;;;;;;;24.33;17.67;;;;;27.40;45.65;101373.44;5086176;27;45396;-73
2023/10/02 13:52:41;;;;;;;;;23.00;20.00;;;;;27.42;45.31;101370.56;5084317;27;45488;-74
2023/10/02 13:55:19;;;;;;;;;19.33;17.67;;;;;27.41;44.76;101371.56;5077528;27;46281;-73
2023/10/02 13:57:55;;;;;;;;;22.00;21.00;;;;;27.40;45.00;101364.41;5090900;27;45477;-74
2023/10/02 14:00:22;;;;;;;;;19.67;16.67;;;;;27.31;45.21;101353.59;5090416;27;45586;-73
2023/10/02 14:02:49;;;;;;;;;15.67;14.33;;;;;27.39;45.09;101355.41;5097474;27;45715;-72
2023/10/02 14:05:15;;;;;;;;;19.33;19.33;;;;;27.39;45.31;101351.81;5087746;27;45604;-72
2023/10/02 14:07:44;;;;;;;;;24.00;19.00;;;;;27.39;44.87;101355.41;5084412;27;45517;-74
2023/10/02 14:10:12;;;;;;;;;21.00;18.33;;;;;27.40;45.65;101353.50;5091336;27;45897;-75
2023/10/02 14:12:38;;;;;;;;;21.00;19.00;;;;;27.41;44.94;101349.75;5084077;27;45687;-74
2023/10/02 14:15:07;;;;;;;;;20.33;17.00;;;;;27.40;45.30;101337.16;5076533;27;45509;-74
2023/10/02 14:17:36;;;;;;;;;19.67;19.00;;;;;27.44;44.99;101342.09;5072877;27;45473;-74
2023/10/02 14:20:04;;;;;;;;;19.33;16.00;;;;;27.44;45.21;101336.63;5084063;27;45630;-74
2023/10/02 14:22:31;;;;;;;;;19.33;17.67;;;;;27.45;44.92;101337.47;5086727;27;45566;-72
2023/10/02 14:24:56;;;;;;;;;22.33;15.67;;;;;27.44;44.79;101325.72;5089322;27;46151;-72
2023/10/02 14:27:22;;;;;;;;;17.00;16.33;;;;;27.41;44.54;101323.34;5084071;27;51679;-72
2023/10/02 14:29:48;;;;;;;;;18.00;15.67;;;;;27.42;44.88;101316.03;5089646;27;45725;-72
2023/10/02 14:32:13;;;;;;;;;15.67;13.67;;;;;27.37;45.44;101311.13;5090822;27;46193;-72
2023/10/02 14:34:38;;;;;;;;;16.00;15.33;;;;;27.40;45.04;101308.03;5082181;27;58119;-71
2023/10/02 14:37:05;;;;;;;;;18.33;16.33;;;;;27.42;44.65;101311.41;5083738;27;45533;-72
2023/10/02 14:39:31;;;;;;;;;18.00;18.00;;;;;27.43;44.94;101301.38;5084478;27;45620;-74
2023/10/02 14:41:56;;;;;;;;;16.00;13.67;;;;;27.44;45.48;101300.34;5082862;27;45571;-77
2023/10/02 14:44:21;;;;;;;;;16.67;14.33;;;;;27.37;45.27;101297.47;5086013;27;48382;-75
2023/10/02 14:46:47;;;;;;;;;20.67;18.00;;;;;27.43;44.70;101304.09;5089198;27;45656;-75
2023/10/02 14:49:12;;;;;;;;;16.67;14.33;;;;;27.40;44.60;101297.13;5087674;27;45544;-74
2023/10/02 14:51:37;;;;;;;;;16.67;14.00;;;;;27.39;44.98;101291.84;5069909;27;58121;-73
2023/10/02 14:54:02;;;;;;;;;13.33;11.00;;;;;27.39;44.59;101289.13;5103306;27;47305;-74
2023/10/02 14:56:28;;;;;;;;;15.00;13.33;;;;;27.39;45.20;101284.53;5087481;27;45699;-73
2023/10/02 14:58:53;;;;;;;;;16.67;12.67;;;;;27.39;45.03;101279.09;5097021;27;45706;-74
2023/10/02 15:01:19;;;;;;;;;14.33;14.00;;;;;27.39;45.28;101278.22;5087748;27;45741;-75
2023/10/02 15:03:45;;;;;;;;;13.33;10.33;;;;;27.39;45.14;101284.53;5080000;27;46384;-73
2023/10/02 15:06:11;;;;;;;;;18.33;15.33;;;;;27.40;45.02;101277.19;5084817;27;45620;-75
2023/10/02 15:08:37;;;;;;;;;19.33;17.00;;;;;27.38;45.29;101271.91;5089544;27;45543;-72
2023/10/02 15:11:06;;;;;;;;;14.00;14.00;;;;;27.42;45.04;101278.69;5078186;27;45770;-71
2023/10/02 15:13:31;;;;;;;;;15.33;14.00;;;;;27.43;44.60;101279.56;5084220;27;45469;-73
2023/10/02 15:15:58;;;;;;;;;18.67;17.00;;;;;27.38;44.75;101269.19;5095894;27;45555;-73
2023/10/02 15:18:25;;;;;;;;;14.67;14.33;;;;;27.39;44.39;101261.88;5089105;27;45660;-72
2023/10/02 15:20:52;;;;;;;;;23.00;17.67;;;;;27.39;44.54;101259.16;5087408;27;45466;-72
2023/10/02 15:23:18;;;;;;;;;21.00;17.67;;;;;27.40;44.52;101260.84;5076354;27;46000;-72
2023/10/02 15:25:50;;;;;;;;;18.33;11.33;;;;;27.41;45.17;101265.25;5088342;27;45590;-72
2023/10/02 15:28:16;;;;;;;;;15.00;14.67;;;;;27.41;44.69;101265.25;5076542;27;45629;-72
2023/10/02 15:30:41;;;;;;;;;15.33;14.33;;;;;27.40;45.13;101255.38;5085171;27;45633;-72
2023/10/02 15:33:07;;;;;;;;;12.67;11.33;;;;;27.39;45.00;101256.44;5090421;27;45747;-71
2023/10/02 15:35:33;;;;;;;;;17.33;15.00;;;;;27.38;44.53;101258.28;5082402;27;45513;-74
2023/10/02 15:38:01;;;;;;;;;15.67;14.67;;;;;27.40;44.33;101253.53;5087029;27;45587;-73
2023/10/02 15:40:26;;;;;;;;;15.67;14.33;;;;;27.39;44.81;101257.28;5091478;27;45592;-73
2023/10/02 15:42:53;;;;;;;;;16.67;13.00;;;;;27.39;44.53;101249.09;5091030;27;45492;-74
2023/10/02 15:45:22;;;;;;;;;15.33;12.67;;;;;27.39;44.53;101243.66;5091069;27;45470;-73
2023/10/02 15:47:50;;;;;;;;;15.33;13.33;;;;;27.39;45.29;101231.91;5080053;27;45801;-73
2023/10/02 16:26:49;;;;;;;;;14.67;11.00;;;;;25.07;49.44;101198.94;5113745;27;45452;-73
2023/10/02 16:29:15;;;;;;;;;8.67;8.67;;;;;25.10;49.16;101199.44;5101917;27;45755;-71
2023/10/02 16:31:43;;;;;;;;;11.67;8.67;;;;;25.20;49.47;101202.00;5099412;27;45753;-72
2023/10/02 16:34:08;;;;;;;;;9.67;9.00;;;;;25.29;49.38;101197.41;5102543;27;45421;-71
2023/10/02 16:36:33;;;;;;;;;16.67;13.33;;;;;25.39;49.15;101183.69;5105148;27;47106;-70
2023/10/02 16:38:59;;;;;;;;;9.67;9.67;;;;;25.36;48.59;101165.84;5102310;27;45701;-72
2023/10/02 16:41:26;;;;;;;;;14.33;13.00;;;;;25.63;48.71;101188.25;5101244;27;45544;-73
2023/10/02 16:43:52;;;;;;;;;8.67;8.67;;;;;25.78;48.95;101203.88;5106743;27;45528;-72
2023/10/02 16:46:18;;;;;;;;;11.00;11.00;;;;;25.90;48.78;101198.91;5107062;27;45690;-72
2023/10/02 16:48:44;;;;;;;;;13.67;11.67;;;;;25.99;48.39;101197.88;5107584;27;45534;-73
2023/10/02 16:51:15;;;;;;;;;12.33;10.67;;;;;26.12;48.55;101197.31;5105509;27;45616;-75
2023/10/02 16:53:42;;;;;;;;;13.67;9.00;;;;;26.21;47.67;101197.28;5105734;27;45596;-76
2023/10/02 16:56:08;;;;;;;;;9.00;7.33;;;;;26.33;47.98;101204.09;5106052;27;47004;-74
2023/10/02 16:58:33;;;;;;;;;16.33;12.67;;;;;26.40;47.51;101196.06;5106338;27;46061;-75
2023/10/02 17:00:59;;;;;;;;;14.67;8.33;;;;;26.48;47.95;101198.72;5107486;27;45551;-74
2023/10/02 17:03:25;;;;;;;;;12.67;10.67;;;;;26.53;47.51;101201.75;5107748;27;46385;-74
2023/10/02 17:05:51;;;;;;;;;14.67;12.00;;;;;26.60;47.70;101198.34;5106746;27;45623;-76
2023/10/02 17:08:16;;;;;;;;;8.67;7.33;;;;;26.64;46.95;101184.19;5099820;27;45936;-76
2023/10/02 17:10:41;;;;;;;;;7.00;5.00;;;;;26.70;47.76;101186.19;5102457;27;45584;-76
2023/10/02 17:13:06;;;;;;;;;7.67;7.00;;;;;26.75;47.61;101182.09;5106394;27;58984;-75
2023/10/02 17:15:33;;;;;;;;;6.33;6.33;;;;;26.77;47.62;101188.22;5106089;27;45990;-74
2023/10/02 17:18:01;;;;;;;;;7.33;7.33;;;;;26.79;47.38;101186.16;5092936;27;46087;-73
2023/10/02 17:20:28;;;;;;;;;10.33;8.67;;;;;26.84;47.06;101197.34;5101706;27;45531;-75
2023/10/02 17:22:54;;;;;;;;;6.67;6.00;;;;;26.86;46.89;101187.13;5106909;27;45724;-75
2023/10/02 17:25:28;;;;;;;;;8.00;6.00;;;;;26.90;46.96;101184.88;5104179;27;46383;-73
2023/10/02 17:27:59;;;;;;;;;7.67;7.67;;;;;26.92;47.14;101197.31;5099860;27;45564;-73
2023/10/02 17:30:26;;;;;;;;;8.33;8.00;;;;;26.91;47.32;101195.63;5099736;27;45636;-72
2023/10/02 17:32:55;;;;;;;;;8.33;7.00;;;;;26.98;47.33;101189.47;5094893;27;45626;-73
2023/10/02 17:35:21;;;;;;;;;6.00;5.00;;;;;27.02;47.32;101185.34;5106344;27;45920;-74
2023/10/02 17:37:47;;;;;;;;;9.00;9.00;;;;;27.03;47.56;101182.44;5088175;27;45659;-72
2023/10/02 17:40:13;;;;;;;;;10.00;6.67;;;;;27.07;47.21;101177.47;5078349;27;45631;-73
2023/10/02 17:42:42;;;;;;;;;6.33;6.33;;;;;27.08;46.79;101171.00;5082466;27;45555;-73
2023/10/02 17:45:09;;;;;;;;;5.67;4.67;;;;;27.10;46.96;101175.22;5085240;27;46192;-71
2023/10/02 17:47:38;;;;;;;;;10.00;7.67;;;;;27.10;46.59;101161.59;5090860;27;45824;-71
